sensor_id;sensor_type;location;lat;lon;timestamp;temperature;humidity
23251;DHT22;11794;49.730;10.088;2023-04-08T00:00:13;5.70;99.90
23251;DHT22;11794;49.730;10.088;2023-04-08T00:02:39;5.70;99.90
23251;DHT22;11794;49.730;10.088;2023-04-08T00:05:05;5.70;99.90
23251;DHT22;11794;49.730;10.088;2023-04-08T00:07:31;5.70;99.90
23251;DHT22;11794;49.730;10.088;2023-04-08T00:09:56;5.70;99.90
23251;DHT22;11794;49.730;10.088;2023-04-08T00:12:22;5.70;99.90
23251;DHT22;11794;49.730;10.088;2023-04-08T00:14:48;5.60;99.90
23251;DHT22;11794;49.730;10.088;2023-04-08T00:17:13;5.60;99.90
23251;DHT22;11794;49.730;10.088;2023-04-08T00:19:39;5.50;99.90
23251;DHT22;11794;49.730;10.088;2023-04-08T00:22:04;5.40;99.90
23251;DHT22;11794;49.730;10.088;2023-04-08T00:24:31;5.40;99.90
23251;DHT22;11794;49.730;10.088;2023-04-08T00:26:56;5.30;99.90
23251;DHT22;11794;49.730;10.088;2023-04-08T00:29:22;5.10;99.90
23251;DHT22;11794;49.730;10.088;2023-04-08T00:31:47;5.10;99.90
23251;DHT22;11794;49.730;10.088;2023-04-08T00:34:13;5.00;99.90
23251;DHT22;11794;49.730;10.088;2023-04-08T00:36:39;4.90;99.90
23251;DHT22;11794;49.730;10.088;2023-04-08T00:39:05;4.90;99.90
23251;DHT22;11794;49.730;10.088;2023-04-08T00:41:33;4.90;99.90
23251;DHT22;11794;49.730;10.088;2023-04-08T00:43:58;5.00;99.90
23251;DHT22;11794;49.730;10.088;2023-04-08T00:46:24;4.90;99.90
23251;DHT22;11794;49.730;10.088;2023-04-08T00:48:51;4.90;99.90
23251;DHT22;11794;49.730;10.088;2023-04-08T00:51:17;4.80;99.90
23251;DHT22;11794;49.730;10.088;2023-04-08T00:53:43;4.70;99.90
23251;DHT22;11794;49.730;10.088;2023-04-08T00:56:09;4.70;99.90
23251;DHT22;11794;49.730;10.088;2023-04-08T00:58:35;4.60;99.90
23251;DHT22;11794;49.730;10.088;2023-04-08T01:01:07;4.60;99.90
23251;DHT22;11794;49.730;10.088;2023-04-08T01:09:12;4.40;99.90
23251;DHT22;11794;49.730;10.088;2023-04-08T01:11:42;4.40;99.90
23251;DHT22;11794;49.730;10.088;2023-04-08T01:14:08;4.30;99.90
23251;DHT22;11794;49.730;10.088;2023-04-08T01:16:37;4.40;99.90
23251;DHT22;11794;49.730;10.088;2023-04-08T01:19:07;4.30;99.90
23251;DHT22;11794;49.730;10.088;2023-04-08T01:21:35;4.40;99.90
23251;DHT22;11794;49.730;10.088;2023-04-08T01:24:17;4.30;99.90
23251;DHT22;11794;49.730;10.088;2023-04-08T01:26:44;4.30;99.90
23251;DHT22;11794;49.730;10.088;2023-04-08T01:29:11;4.30;99.90
23251;DHT22;11794;49.730;10.088;2023-04-08T01:31:38;4.30;99.90
23251;DHT22;11794;49.730;10.088;2023-04-08T01:34:06;4.20;99.90
23251;DHT22;11794;49.730;10.088;2023-04-08T01:36:32;4.20;99.90
23251;DHT22;11794;49.730;10.088;2023-04-08T01:39:01;4.20;99.90
23251;DHT22;11794;49.730;10.088;2023-04-08T01:41:30;4.20;99.90
23251;DHT22;11794;49.730;10.088;2023-04-08T01:43:58;4.10;99.90
23251;DHT22;11794;49.730;10.088;2023-04-08T01:46:26;4.20;99.90
23251;DHT22;11794;49.730;10.088;2023-04-08T01:48:52;4.10;99.90
23251;DHT22;11794;49.730;10.088;2023-04-08T01:51:19;4.20;99.90
23251;DHT22;11794;49.730;10.088;2023-04-08T01:53:45;4.20;99.90
23251;DHT22;11794;49.730;10.088;2023-04-08T01:56:12;4.20;99.90
23251;DHT22;11794;49.730;10.088;2023-04-08T01:58:41;4.20;99.90
23251;DHT22;11794;49.730;10.088;2023-04-08T02:01:12;4.10;99.90
23251;DHT22;11794;49.730;10.088;2023-04-08T02:03:41;4.00;99.90
23251;DHT22;11794;49.730;10.088;2023-04-08T02:06:07;4.00;99.90
23251;DHT22;11794;49.730;10.088;2023-04-08T02:08:34;4.00;99.90
23251;DHT22;11794;49.730;10.088;2023-04-08T02:11:01;4.10;99.90
23251;DHT22;11794;49.730;10.088;2023-04-08T02:13:28;4.10;99.90
23251;DHT22;11794;49.730;10.088;2023-04-08T02:16:01;4.20;99.90
23251;DHT22;11794;49.730;10.088;2023-04-08T02:18:29;4.20;99.90
23251;DHT22;11794;49.730;10.088;2023-04-08T02:21:16;4.30;99.90
23251;DHT22;11794;49.730;10.088;2023-04-08T02:23:47;4.20;99.90
23251;DHT22;11794;49.730;10.088;2023-04-08T02:26:14;4.20;99.90
23251;DHT22;11794;49.730;10.088;2023-04-08T02:28:41;4.20;99.90
23251;DHT22;11794;49.730;10.088;2023-04-08T02:31:11;4.20;99.90
23251;DHT22;11794;49.730;10.088;2023-04-08T02:33:41;4.30;99.90
23251;DHT22;11794;49.730;10.088;2023-04-08T02:36:08;4.30;99.90
23251;DHT22;11794;49.730;10.088;2023-04-08T02:38:35;4.40;99.90
23251;DHT22;11794;49.730;10.088;2023-04-08T02:41:01;4.40;99.90
23251;DHT22;11794;49.730;10.088;2023-04-08T02:43:26;4.40;99.90
23251;DHT22;11794;49.730;10.088;2023-04-08T02:45:57;4.30;99.90
23251;DHT22;11794;49.730;10.088;2023-04-08T02:48:24;4.30;99.90
23251;DHT22;11794;49.730;10.088;2023-04-08T02:50:50;4.30;99.90
23251;DHT22;11794;49.730;10.088;2023-04-08T02:53:16;4.40;99.90
23251;DHT22;11794;49.730;10.088;2023-04-08T02:55:41;4.40;99.90
23251;DHT22;11794;49.730;10.088;2023-04-08T02:58:07;4.40;99.90
23251;DHT22;11794;49.730;10.088;2023-04-08T03:00:32;4.40;99.90
23251;DHT22;11794;49.730;10.088;2023-04-08T03:02:58;4.40;99.90
23251;DHT22;11794;49.730;10.088;2023-04-08T03:05:24;4.40;99.90
23251;DHT22;11794;49.730;10.088;2023-04-08T03:07:50;4.40;99.90
23251;DHT22;11794;49.730;10.088;2023-04-08T03:10:15;4.50;99.90
23251;DHT22;11794;49.730;10.088;2023-04-08T03:12:41;4.40;99.90
23251;DHT22;11794;49.730;10.088;2023-04-08T03:15:07;4.50;99.90
23251;DHT22;11794;49.730;10.088;2023-04-08T03:17:32;4.50;99.90
23251;DHT22;11794;49.730;10.088;2023-04-08T03:19:59;4.50;99.90
23251;DHT22;11794;49.730;10.088;2023-04-08T03:22:25;4.50;99.90
23251;DHT22;11794;49.730;10.088;2023-04-08T03:24:50;4.60;99.90
23251;DHT22;11794;49.730;10.088;2023-04-08T03:27:16;4.60;99.90
23251;DHT22;11794;49.730;10.088;2023-04-08T03:29:41;4.60;99.90
23251;DHT22;11794;49.730;10.088;2023-04-08T03:32:07;4.70;99.90
23251;DHT22;11794;49.730;10.088;2023-04-08T03:34:35;4.70;99.90
23251;DHT22;11794;49.730;10.088;2023-04-08T03:37:01;4.70;99.90
23251;DHT22;11794;49.730;10.088;2023-04-08T03:39:26;4.70;99.90
23251;DHT22;11794;49.730;10.088;2023-04-08T03:41:52;4.60;99.90
23251;DHT22;11794;49.730;10.088;2023-04-08T03:44:17;4.60;99.90
23251;DHT22;11794;49.730;10.088;2023-04-08T03:46:43;4.60;99.90
23251;DHT22;11794;49.730;10.088;2023-04-08T03:49:08;4.60;99.90
23251;DHT22;11794;49.730;10.088;2023-04-08T03:51:34;4.70;99.90
23251;DHT22;11794;49.730;10.088;2023-04-08T03:53:59;4.70;99.90
23251;DHT22;11794;49.730;10.088;2023-04-08T03:56:25;4.60;99.90
23251;DHT22;11794;49.730;10.088;2023-04-08T03:58:50;4.60;99.90
23251;DHT22;11794;49.730;10.088;2023-04-08T04:01:16;4.60;99.90
23251;DHT22;11794;49.730;10.088;2023-04-08T04:03:41;4.70;99.90
23251;DHT22;11794;49.730;10.088;2023-04-08T04:06:07;4.70;99.90
23251;DHT22;11794;49.730;10.088;2023-04-08T04:08:32;4.70;99.90
23251;DHT22;11794;49.730;10.088;2023-04-08T04:10:59;4.70;99.90
23251;DHT22;11794;49.730;10.088;2023-04-08T04:13:24;4.80;99.90
23251;DHT22;11794;49.730;10.088;2023-04-08T04:15:50;4.80;99.90
23251;DHT22;11794;49.730;10.088;2023-04-08T04:18:15;4.70;99.90
23251;DHT22;11794;49.730;10.088;2023-04-08T04:20:41;4.70;99.90
23251;DHT22;11794;49.730;10.088;2023-04-08T04:23:07;4.70;99.90
23251;DHT22;11794;49.730;10.088;2023-04-08T04:25:33;4.60;99.90
23251;DHT22;11794;49.730;10.088;2023-04-08T04:27:59;4.60;99.90
23251;DHT22;11794;49.730;10.088;2023-04-08T04:30:24;4.60;99.90
23251;DHT22;11794;49.730;10.088;2023-04-08T04:32:50;4.50;99.90
23251;DHT22;11794;49.730;10.088;2023-04-08T04:35:15;4.50;99.90
23251;DHT22;11794;49.730;10.088;2023-04-08T04:37:41;4.40;99.90
23251;DHT22;11794;49.730;10.088;2023-04-08T04:40:07;4.40;99.90
23251;DHT22;11794;49.730;10.088;2023-04-08T04:42:32;4.40;99.90
23251;DHT22;11794;49.730;10.088;2023-04-08T04:44:58;4.40;99.90
23251;DHT22;11794;49.730;10.088;2023-04-08T04:47:24;4.40;99.90
23251;DHT22;11794;49.730;10.088;2023-04-08T04:49:50;4.40;99.90
23251;DHT22;11794;49.730;10.088;2023-04-08T04:52:15;4.50;99.90
23251;DHT22;11794;49.730;10.088;2023-04-08T04:54:41;4.50;99.90
23251;DHT22;11794;49.730;10.088;2023-04-08T04:57:07;4.50;99.90
23251;DHT22;11794;49.730;10.088;2023-04-08T04:59:32;4.40;99.90
23251;DHT22;11794;49.730;10.088;2023-04-08T05:01:58;4.50;99.90
23251;DHT22;11794;49.730;10.088;2023-04-08T05:04:24;4.60;99.90
23251;DHT22;11794;49.730;10.088;2023-04-08T05:06:49;4.60;99.90
23251;DHT22;11794;49.730;10.088;2023-04-08T05:09:15;4.50;99.90
23251;DHT22;11794;49.730;10.088;2023-04-08T05:11:40;4.60;99.90
23251;DHT22;11794;49.730;10.088;2023-04-08T05:14:06;4.60;99.90
23251;DHT22;11794;49.730;10.088;2023-04-08T05:16:32;4.60;99.90
23251;DHT22;11794;49.730;10.088;2023-04-08T05:18:58;4.70;99.90
23251;DHT22;11794;49.730;10.088;2023-04-08T05:21:23;4.70;99.90
23251;DHT22;11794;49.730;10.088;2023-04-08T05:23:49;4.80;99.90
23251;DHT22;11794;49.730;10.088;2023-04-08T05:26:18;4.90;99.90
23251;DHT22;11794;49.730;10.088;2023-04-08T05:28:43;5.00;99.90
23251;DHT22;11794;49.730;10.088;2023-04-08T05:31:09;5.10;99.90
23251;DHT22;11794;49.730;10.088;2023-04-08T05:33:36;5.20;99.90
23251;DHT22;11794;49.730;10.088;2023-04-08T05:36:01;5.30;99.90
23251;DHT22;11794;49.730;10.088;2023-04-08T05:38:27;5.40;99.90
23251;DHT22;11794;49.730;10.088;2023-04-08T05:40:52;5.30;99.90
23251;DHT22;11794;49.730;10.088;2023-04-08T05:43:18;5.40;99.90
23251;DHT22;11794;49.730;10.088;2023-04-08T05:45:43;5.40;99.90
23251;DHT22;11794;49.730;10.088;2023-04-08T05:48:09;5.50;99.90
23251;DHT22;11794;49.730;10.088;2023-04-08T05:50:35;5.50;99.90
23251;DHT22;11794;49.730;10.088;2023-04-08T05:53:00;5.70;99.90
23251;DHT22;11794;49.730;10.088;2023-04-08T05:55:26;5.80;99.90
23251;DHT22;11794;49.730;10.088;2023-04-08T05:57:51;5.90;99.90
23251;DHT22;11794;49.730;10.088;2023-04-08T06:00:17;6.00;99.90
23251;DHT22;11794;49.730;10.088;2023-04-08T06:02:45;6.00;99.90
23251;DHT22;11794;49.730;10.088;2023-04-08T06:05:10;6.10;99.90
23251;DHT22;11794;49.730;10.088;2023-04-08T06:07:36;6.10;99.90
23251;DHT22;11794;49.730;10.088;2023-04-08T06:10:01;6.30;99.90
23251;DHT22;11794;49.730;10.088;2023-04-08T06:12:27;6.40;99.90
23251;DHT22;11794;49.730;10.088;2023-04-08T06:14:53;6.50;99.90
23251;DHT22;11794;49.730;10.088;2023-04-08T06:17:20;6.50;99.90
23251;DHT22;11794;49.730;10.088;2023-04-08T06:19:45;6.50;99.90
23251;DHT22;11794;49.730;10.088;2023-04-08T06:22:11;6.50;99.90
23251;DHT22;11794;49.730;10.088;2023-04-08T06:24:36;6.50;99.90
23251;DHT22;11794;49.730;10.088;2023-04-08T06:27:02;6.60;99.90
23251;DHT22;11794;49.730;10.088;2023-04-08T06:29:27;6.50;99.90
23251;DHT22;11794;49.730;10.088;2023-04-08T06:31:54;6.50;99.90
23251;DHT22;11794;49.730;10.088;2023-04-08T06:34:20;6.50;99.90
23251;DHT22;11794;49.730;10.088;2023-04-08T06:36:45;6.50;99.90
23251;DHT22;11794;49.730;10.088;2023-04-08T06:39:11;6.40;99.90
23251;DHT22;11794;49.730;10.088;2023-04-08T06:41:36;6.30;99.90
23251;DHT22;11794;49.730;10.088;2023-04-08T06:44:02;6.20;99.90
23251;DHT22;11794;49.730;10.088;2023-04-08T06:46:27;6.20;99.90
23251;DHT22;11794;49.730;10.088;2023-04-08T06:48:53;6.20;99.90
23251;DHT22;11794;49.730;10.088;2023-04-08T06:51:19;6.30;99.90
23251;DHT22;11794;49.730;10.088;2023-04-08T06:53:45;6.30;99.90
23251;DHT22;11794;49.730;10.088;2023-04-08T06:56:10;6.30;99.90
23251;DHT22;11794;49.730;10.088;2023-04-08T06:58:36;6.30;99.90
23251;DHT22;11794;49.730;10.088;2023-04-08T07:01:01;6.30;99.90
23251;DHT22;11794;49.730;10.088;2023-04-08T07:03:27;6.40;99.90
23251;DHT22;11794;49.730;10.088;2023-04-08T07:05:53;6.60;99.90
23251;DHT22;11794;49.730;10.088;2023-04-08T07:08:19;6.80;99.90
23251;DHT22;11794;49.730;10.088;2023-04-08T07:10:44;7.00;99.90
23251;DHT22;11794;49.730;10.088;2023-04-08T07:13:10;7.30;99.90
23251;DHT22;11794;49.730;10.088;2023-04-08T07:15:36;7.40;99.90
23251;DHT22;11794;49.730;10.088;2023-04-08T07:18:01;7.50;99.90
23251;DHT22;11794;49.730;10.088;2023-04-08T07:20:29;7.60;99.90
23251;DHT22;11794;49.730;10.088;2023-04-08T07:22:54;7.60;99.90
23251;DHT22;11794;49.730;10.088;2023-04-08T07:25:20;7.60;99.90
23251;DHT22;11794;49.730;10.088;2023-04-08T07:27:45;7.50;99.90
23251;DHT22;11794;49.730;10.088;2023-04-08T07:30:11;7.30;99.90
23251;DHT22;11794;49.730;10.088;2023-04-08T07:32:37;7.30;99.90
23251;DHT22;11794;49.730;10.088;2023-04-08T07:35:02;7.10;99.90
23251;DHT22;11794;49.730;10.088;2023-04-08T07:37:28;7.10;99.90
23251;DHT22;11794;49.730;10.088;2023-04-08T07:39:54;7.20;99.90
23251;DHT22;11794;49.730;10.088;2023-04-08T07:42:19;7.10;99.90
23251;DHT22;11794;49.730;10.088;2023-04-08T07:44:45;7.10;99.90
23251;DHT22;11794;49.730;10.088;2023-04-08T07:47:11;6.90;99.90
23251;DHT22;11794;49.730;10.088;2023-04-08T07:49:37;6.90;99.90
23251;DHT22;11794;49.730;10.088;2023-04-08T07:52:03;6.90;99.90
23251;DHT22;11794;49.730;10.088;2023-04-08T07:54:32;6.80;99.90
23251;DHT22;11794;49.730;10.088;2023-04-08T07:57:01;6.80;99.90
23251;DHT22;11794;49.730;10.088;2023-04-08T07:59:27;6.60;99.90
23251;DHT22;11794;49.730;10.088;2023-04-08T08:01:53;6.50;99.90
23251;DHT22;11794;49.730;10.088;2023-04-08T08:04:19;6.50;99.90
23251;DHT22;11794;49.730;10.088;2023-04-08T08:06:45;6.60;99.90
23251;DHT22;11794;49.730;10.088;2023-04-08T08:09:12;6.70;99.90
23251;DHT22;11794;49.730;10.088;2023-04-08T08:11:38;6.70;99.90
23251;DHT22;11794;49.730;10.088;2023-04-08T08:14:03;6.60;99.90
23251;DHT22;11794;49.730;10.088;2023-04-08T08:16:30;6.60;99.90
23251;DHT22;11794;49.730;10.088;2023-04-08T08:18:56;6.70;99.90
23251;DHT22;11794;49.730;10.088;2023-04-08T08:21:22;6.70;99.90
23251;DHT22;11794;49.730;10.088;2023-04-08T08:23:47;6.80;99.90
23251;DHT22;11794;49.730;10.088;2023-04-08T08:26:13;6.80;99.90
23251;DHT22;11794;49.730;10.088;2023-04-08T08:28:39;6.80;99.90
23251;DHT22;11794;49.730;10.088;2023-04-08T08:31:05;6.80;99.90
23251;DHT22;11794;49.730;10.088;2023-04-08T08:33:31;6.90;99.90
23251;DHT22;11794;49.730;10.088;2023-04-08T08:35:57;7.10;99.90
23251;DHT22;11794;49.730;10.088;2023-04-08T08:38:23;7.10;99.90
23251;DHT22;11794;49.730;10.088;2023-04-08T08:40:58;7.10;99.90
23251;DHT22;11794;49.730;10.088;2023-04-08T08:43:25;7.10;99.90
23251;DHT22;11794;49.730;10.088;2023-04-08T08:45:52;7.10;99.90
23251;DHT22;11794;49.730;10.088;2023-04-08T08:48:17;7.00;99.90
23251;DHT22;11794;49.730;10.088;2023-04-08T08:50:43;7.10;99.90
23251;DHT22;11794;49.730;10.088;2023-04-08T08:53:09;7.10;99.90
23251;DHT22;11794;49.730;10.088;2023-04-08T08:55:34;7.20;99.90
23251;DHT22;11794;49.730;10.088;2023-04-08T08:58:02;7.20;99.90
23251;DHT22;11794;49.730;10.088;2023-04-08T09:00:37;7.30;99.90
23251;DHT22;11794;49.730;10.088;2023-04-08T09:03:16;7.30;99.90
23251;DHT22;11794;49.730;10.088;2023-04-08T09:05:52;7.30;99.90
23251;DHT22;11794;49.730;10.088;2023-04-08T09:08:34;7.30;99.90
23251;DHT22;11794;49.730;10.088;2023-04-08T09:11:18;7.50;99.90
23251;DHT22;11794;49.730;10.088;2023-04-08T09:13:44;7.70;99.90
23251;DHT22;11794;49.730;10.088;2023-04-08T09:16:12;8.00;99.90
23251;DHT22;11794;49.730;10.088;2023-04-08T09:18:39;8.10;99.90
23251;DHT22;11794;49.730;10.088;2023-04-08T09:21:06;8.40;99.90
23251;DHT22;11794;49.730;10.088;2023-04-08T09:26:15;8.80;99.90
23251;DHT22;11794;49.730;10.088;2023-04-08T09:28:42;9.00;99.90
23251;DHT22;11794;49.730;10.088;2023-04-08T09:31:24;9.10;99.90
23251;DHT22;11794;49.730;10.088;2023-04-08T09:33:53;9.10;99.90
23251;DHT22;11794;49.730;10.088;2023-04-08T09:36:18;9.20;99.90
23251;DHT22;11794;49.730;10.088;2023-04-08T09:38:44;9.30;99.90
23251;DHT22;11794;49.730;10.088;2023-04-08T09:41:13;9.50;99.90
23251;DHT22;11794;49.730;10.088;2023-04-08T09:43:46;9.70;99.90
23251;DHT22;11794;49.730;10.088;2023-04-08T09:46:18;9.80;99.90
23251;DHT22;11794;49.730;10.088;2023-04-08T09:48:57;9.70;99.90
23251;DHT22;11794;49.730;10.088;2023-04-08T09:51:28;9.70;99.90
23251;DHT22;11794;49.730;10.088;2023-04-08T09:54:02;9.40;99.90
23251;DHT22;11794;49.730;10.088;2023-04-08T09:56:37;9.50;99.90
23251;DHT22;11794;49.730;10.088;2023-04-08T09:59:12;9.30;99.90
23251;DHT22;11794;49.730;10.088;2023-04-08T10:01:41;9.40;99.90
23251;DHT22;11794;49.730;10.088;2023-04-08T10:04:13;9.70;99.90
23251;DHT22;11794;49.730;10.088;2023-04-08T10:06:40;10.00;99.90
23251;DHT22;11794;49.730;10.088;2023-04-08T10:09:06;10.40;99.90
23251;DHT22;11794;49.730;10.088;2023-04-08T10:11:32;10.80;99.90
23251;DHT22;11794;49.730;10.088;2023-04-08T10:13:58;11.10;99.90
23251;DHT22;11794;49.730;10.088;2023-04-08T10:16:25;10.90;99.90
23251;DHT22;11794;49.730;10.088;2023-04-08T10:18:52;10.60;99.90
23251;DHT22;11794;49.730;10.088;2023-04-08T10:21:39;10.50;99.90
23251;DHT22;11794;49.730;10.088;2023-04-08T10:24:12;10.50;99.90
23251;DHT22;11794;49.730;10.088;2023-04-08T10:26:42;10.30;99.90
23251;DHT22;11794;49.730;10.088;2023-04-08T10:29:29;10.10;99.90
23251;DHT22;11794;49.730;10.088;2023-04-08T10:31:55;10.10;99.90
23251;DHT22;11794;49.730;10.088;2023-04-08T10:34:23;10.20;99.90
23251;DHT22;11794;49.730;10.088;2023-04-08T10:36:51;10.10;99.90
23251;DHT22;11794;49.730;10.088;2023-04-08T10:39:17;9.80;99.90
23251;DHT22;11794;49.730;10.088;2023-04-08T10:41:47;9.60;99.90
23251;DHT22;11794;49.730;10.088;2023-04-08T10:44:17;9.50;99.90
23251;DHT22;11794;49.730;10.088;2023-04-08T10:46:43;9.50;99.90
23251;DHT22;11794;49.730;10.088;2023-04-08T10:49:09;9.40;99.90
23251;DHT22;11794;49.730;10.088;2023-04-08T10:51:35;9.60;99.90
23251;DHT22;11794;49.730;10.088;2023-04-08T10:54:14;9.90;99.90
23251;DHT22;11794;49.730;10.088;2023-04-08T10:56:49;10.00;99.90
23251;DHT22;11794;49.730;10.088;2023-04-08T10:59:16;10.20;99.90
23251;DHT22;11794;49.730;10.088;2023-04-08T11:01:43;10.30;99.90
23251;DHT22;11794;49.730;10.088;2023-04-08T11:04:13;10.30;99.90
23251;DHT22;11794;49.730;10.088;2023-04-08T11:06:41;10.20;99.90
23251;DHT22;11794;49.730;10.088;2023-04-08T11:09:07;10.10;99.90
23251;DHT22;11794;49.730;10.088;2023-04-08T11:11:33;9.90;99.90
23251;DHT22;11794;49.730;10.088;2023-04-08T11:13:59;10.10;99.90
23251;DHT22;11794;49.730;10.088;2023-04-08T11:16:26;10.30;99.90
23251;DHT22;11794;49.730;10.088;2023-04-08T11:18:52;10.30;99.90
23251;DHT22;11794;49.730;10.088;2023-04-08T11:21:18;10.30;99.90
23251;DHT22;11794;49.730;10.088;2023-04-08T11:23:44;10.20;99.90
23251;DHT22;11794;49.730;10.088;2023-04-08T11:26:14;10.10;99.90
23251;DHT22;11794;49.730;10.088;2023-04-08T11:28:39;10.10;99.90
23251;DHT22;11794;49.730;10.088;2023-04-08T11:31:05;10.30;99.90
23251;DHT22;11794;49.730;10.088;2023-04-08T11:33:33;10.40;99.90
23251;DHT22;11794;49.730;10.088;2023-04-08T11:36:00;10.90;99.90
23251;DHT22;11794;49.730;10.088;2023-04-08T11:38:28;11.30;99.90
23251;DHT22;11794;49.730;10.088;2023-04-08T11:40:55;11.30;99.90
23251;DHT22;11794;49.730;10.088;2023-04-08T11:43:21;11.50;99.90
23251;DHT22;11794;49.730;10.088;2023-04-08T11:45:47;11.40;99.90
23251;DHT22;11794;49.730;10.088;2023-04-08T11:48:14;11.40;99.90
23251;DHT22;11794;49.730;10.088;2023-04-08T11:50:41;11.30;99.90
23251;DHT22;11794;49.730;10.088;2023-04-08T11:53:17;11.00;99.90
23251;DHT22;11794;49.730;10.088;2023-04-08T11:55:44;10.70;99.90
23251;DHT22;11794;49.730;10.088;2023-04-08T11:58:10;10.50;99.90
23251;DHT22;11794;49.730;10.088;2023-04-08T12:00:35;10.40;99.90
23251;DHT22;11794;49.730;10.088;2023-04-08T12:03:01;10.30;99.90
23251;DHT22;11794;49.730;10.088;2023-04-08T12:05:27;10.30;99.90
23251;DHT22;11794;49.730;10.088;2023-04-08T12:07:53;10.20;99.90
23251;DHT22;11794;49.730;10.088;2023-04-08T12:10:18;10.10;99.90
23251;DHT22;11794;49.730;10.088;2023-04-08T12:12:44;10.10;99.90
23251;DHT22;11794;49.730;10.088;2023-04-08T12:15:09;10.10;99.90
23251;DHT22;11794;49.730;10.088;2023-04-08T12:17:35;10.10;99.90
23251;DHT22;11794;49.730;10.088;2023-04-08T12:20:04;10.20;99.90
23251;DHT22;11794;49.730;10.088;2023-04-08T12:22:29;10.40;99.90
23251;DHT22;11794;49.730;10.088;2023-04-08T12:24:55;10.60;99.90
23251;DHT22;11794;49.730;10.088;2023-04-08T12:27:21;10.50;99.90
23251;DHT22;11794;49.730;10.088;2023-04-08T12:29:46;10.40;99.90
23251;DHT22;11794;49.730;10.088;2023-04-08T12:32:14;10.30;99.90
23251;DHT22;11794;49.730;10.088;2023-04-08T12:34:39;10.20;99.90
23251;DHT22;11794;49.730;10.088;2023-04-08T12:37:05;10.30;99.90
23251;DHT22;11794;49.730;10.088;2023-04-08T12:39:31;10.20;99.90
23251;DHT22;11794;49.730;10.088;2023-04-08T12:41:56;10.10;99.90
23251;DHT22;11794;49.730;10.088;2023-04-08T12:44:22;10.00;99.90
23251;DHT22;11794;49.730;10.088;2023-04-08T12:46:47;10.00;99.90
23251;DHT22;11794;49.730;10.088;2023-04-08T12:49:13;10.00;99.90
23251;DHT22;11794;49.730;10.088;2023-04-08T12:51:38;10.20;99.90
23251;DHT22;11794;49.730;10.088;2023-04-08T12:54:05;10.30;99.90
23251;DHT22;11794;49.730;10.088;2023-04-08T12:56:31;10.50;99.90
23251;DHT22;11794;49.730;10.088;2023-04-08T12:58:57;10.70;99.90
23251;DHT22;11794;49.730;10.088;2023-04-08T13:01:23;10.70;99.90
23251;DHT22;11794;49.730;10.088;2023-04-08T13:03:49;10.80;99.90
23251;DHT22;11794;49.730;10.088;2023-04-08T13:06:14;10.70;99.90
23251;DHT22;11794;49.730;10.088;2023-04-08T13:08:41;10.40;99.90
23251;DHT22;11794;49.730;10.088;2023-04-08T13:11:07;10.30;99.90
23251;DHT22;11794;49.730;10.088;2023-04-08T13:13:33;10.30;99.90
23251;DHT22;11794;49.730;10.088;2023-04-08T13:15:59;10.40;99.90
23251;DHT22;11794;49.730;10.088;2023-04-08T13:18:25;10.50;99.90
23251;DHT22;11794;49.730;10.088;2023-04-08T13:20:50;10.60;99.90
23251;DHT22;11794;49.730;10.088;2023-04-08T13:23:16;10.80;99.90
23251;DHT22;11794;49.730;10.088;2023-04-08T13:25:45;10.80;99.90
23251;DHT22;11794;49.730;10.088;2023-04-08T13:28:11;10.90;99.90
23251;DHT22;11794;49.730;10.088;2023-04-08T13:30:36;10.90;99.90
23251;DHT22;11794;49.730;10.088;2023-04-08T13:33:02;11.00;99.90
23251;DHT22;11794;49.730;10.088;2023-04-08T13:35:28;11.10;99.90
23251;DHT22;11794;49.730;10.088;2023-04-08T13:37:53;10.90;99.90
23251;DHT22;11794;49.730;10.088;2023-04-08T13:40:19;10.70;99.90
23251;DHT22;11794;49.730;10.088;2023-04-08T13:42:44;10.50;99.90
23251;DHT22;11794;49.730;10.088;2023-04-08T13:45:10;10.30;99.90
23251;DHT22;11794;49.730;10.088;2023-04-08T13:47:35;10.10;99.90
23251;DHT22;11794;49.730;10.088;2023-04-08T13:50:01;10.00;99.90
23251;DHT22;11794;49.730;10.088;2023-04-08T13:52:27;10.20;99.90
23251;DHT22;11794;49.730;10.088;2023-04-08T13:54:52;10.40;99.90
23251;DHT22;11794;49.730;10.088;2023-04-08T13:57:18;10.60;99.90
23251;DHT22;11794;49.730;10.088;2023-04-08T13:59:43;10.70;99.90
23251;DHT22;11794;49.730;10.088;2023-04-08T14:02:09;10.90;99.90
23251;DHT22;11794;49.730;10.088;2023-04-08T14:04:34;11.10;99.90
23251;DHT22;11794;49.730;10.088;2023-04-08T14:07:00;11.30;99.90
23251;DHT22;11794;49.730;10.088;2023-04-08T14:09:25;11.50;99.90
23251;DHT22;11794;49.730;10.088;2023-04-08T14:11:51;11.90;99.90
23251;DHT22;11794;49.730;10.088;2023-04-08T14:14:16;12.00;99.90
23251;DHT22;11794;49.730;10.088;2023-04-08T14:16:42;12.00;99.90
23251;DHT22;11794;49.730;10.088;2023-04-08T14:19:08;12.10;99.90
23251;DHT22;11794;49.730;10.088;2023-04-08T14:21:33;11.90;99.90
23251;DHT22;11794;49.730;10.088;2023-04-08T14:23:59;11.70;99.90
23251;DHT22;11794;49.730;10.088;2023-04-08T14:26:24;11.40;99.90
23251;DHT22;11794;49.730;10.088;2023-04-08T14:28:50;11.10;99.90
23251;DHT22;11794;49.730;10.088;2023-04-08T14:31:16;10.80;99.90
23251;DHT22;11794;49.730;10.088;2023-04-08T14:33:42;10.70;99.90
23251;DHT22;11794;49.730;10.088;2023-04-08T14:36:08;10.50;99.90
23251;DHT22;11794;49.730;10.088;2023-04-08T14:38:34;10.50;99.90
23251;DHT22;11794;49.730;10.088;2023-04-08T14:41:00;10.60;99.90
23251;DHT22;11794;49.730;10.088;2023-04-08T14:43:25;10.70;99.90
23251;DHT22;11794;49.730;10.088;2023-04-08T14:45:51;10.90;99.90
23251;DHT22;11794;49.730;10.088;2023-04-08T14:48:17;10.90;99.90
23251;DHT22;11794;49.730;10.088;2023-04-08T14:50:43;11.30;99.90
23251;DHT22;11794;49.730;10.088;2023-04-08T14:53:08;12.20;99.90
23251;DHT22;11794;49.730;10.088;2023-04-08T14:55:34;12.20;99.90
23251;DHT22;11794;49.730;10.088;2023-04-08T14:58:00;12.10;99.90
23251;DHT22;11794;49.730;10.088;2023-04-08T15:00:25;11.90;99.90
23251;DHT22;11794;49.730;10.088;2023-04-08T15:02:51;11.70;99.90
23251;DHT22;11794;49.730;10.088;2023-04-08T15:05:16;11.40;99.90
23251;DHT22;11794;49.730;10.088;2023-04-08T15:07:42;11.10;99.90
23251;DHT22;11794;49.730;10.088;2023-04-08T15:10:09;11.00;99.90
23251;DHT22;11794;49.730;10.088;2023-04-08T15:12:34;11.00;99.90
23251;DHT22;11794;49.730;10.088;2023-04-08T15:15:01;11.00;99.90
23251;DHT22;11794;49.730;10.088;2023-04-08T15:17:26;11.00;99.90
23251;DHT22;11794;49.730;10.088;2023-04-08T15:19:53;11.00;99.90
23251;DHT22;11794;49.730;10.088;2023-04-08T15:22:18;11.00;99.90
23251;DHT22;11794;49.730;10.088;2023-04-08T15:24:44;11.00;99.90
23251;DHT22;11794;49.730;10.088;2023-04-08T15:27:10;11.00;99.90
23251;DHT22;11794;49.730;10.088;2023-04-08T15:29:35;10.90;99.90